Time;durP1;ratioP1;P1;durP2;ratioP2;P2;SDS_P1;SDS_P2;PMS_P1;PMS_P2;Temp;Humidity;BMP_temperature;BMP_pressure;BME280_temperature;BME280_humidity;BME280_pressure;Samples;Min_cycle;Max_cycle;Signal;HPM_P1;HPM_P2
2022/04/04 00:02:26;;;;;;;2.05;1.13;;;3.20;99.90;;;;;;4999030;28;20069;-68
2022/04/04 00:04:53;;;;;;;3.58;1.08;;;3.20;99.90;;;;;;5000587;28;20141;-64
2022/04/04 00:07:20;;;;;;;4.95;1.10;;;3.20;99.90;;;;;;5003141;28;20065;-68
2022/04/04 00:09:47;;;;;;;5.82;1.45;;;3.20;99.90;;;;;;5011122;28;20072;-65
2022/04/04 00:12:15;;;;;;;5.28;1.80;;;3.20;99.90;;;;;;5004759;28;20140;-65
2022/04/04 00:14:43;;;;;;;5.80;1.45;;;3.20;99.90;;;;;;4998102;28;20050;-66
2022/04/04 00:17:11;;;;;;;3.03;1.38;;;3.10;99.90;;;;;;5002960;28;20108;-67
2022/04/04 00:19:39;;;;;;;1.35;1.05;;;3.10;99.90;;;;;;5002732;28;20054;-64
2022/04/04 00:22:07;;;;;;;2.88;1.30;;;3.10;99.90;;;;;;5002862;28;20053;-64
2022/04/04 00:24:34;;;;;;;3.60;1.23;;;3.10;99.90;;;;;;5000349;28;20050;-64
2022/04/04 00:27:01;;;;;;;3.42;1.25;;;3.10;99.90;;;;;;4996613;28;20748;-64
2022/04/04 00:29:28;;;;;;;6.07;1.42;;;3.10;99.90;;;;;;4999606;28;20072;-66
2022/04/04 00:31:55;;;;;;;4.93;2.25;;;3.10;99.90;;;;;;4992741;28;20096;-65
2022/04/04 00:34:22;;;;;;;2.92;1.65;;;3.10;99.90;;;;;;5005519;28;20065;-65
2022/04/04 00:36:49;;;;;;;2.20;1.30;;;3.10;99.90;;;;;;5003146;28;20139;-64
2022/04/04 00:39:19;;;;;;;2.45;1.45;;;3.10;99.90;;;;;;5002427;28;20503;-70
2022/04/04 00:41:47;;;;;;;2.67;1.95;;;3.10;99.90;;;;;;5005700;28;20049;-65
2022/04/04 00:44:14;;;;;;;6.78;1.92;;;3.10;99.90;;;;;;5000336;28;20054;-63
2022/04/04 00:46:42;;;;;;;6.07;2.60;;;3.10;99.90;;;;;;4995834;28;20049;-65
2022/04/04 00:49:10;;;;;;;9.07;1.65;;;3.00;99.90;;;;;;5007753;28;20033;-64
2022/04/04 00:51:38;;;;;;;4.22;1.60;;;3.10;99.90;;;;;;5005831;28;20104;-66
2022/04/04 00:54:05;;;;;;;6.53;1.65;;;3.00;99.90;;;;;;5003119;28;20171;-66
2022/04/04 00:56:33;;;;;;;2.78;1.52;;;3.00;99.90;;;;;;5004559;28;20129;-66
2022/04/04 00:59:03;;;;;;;2.95;1.45;;;3.00;99.90;;;;;;5000390;28;20038;-63
2022/04/04 01:01:32;;;;;;;2.83;1.42;;;3.00;99.90;;;;;;4998238;28;20050;-65
2022/04/04 01:03:59;;;;;;;4.18;1.70;;;3.00;99.90;;;;;;5006153;28;20133;-64
2022/04/04 01:06:26;;;;;;;2.00;1.83;;;3.00;99.90;;;;;;5004895;28;20085;-68
2022/04/04 01:08:53;;;;;;;5.57;1.80;;;3.00;99.90;;;;;;5015617;28;20065;-64
2022/04/04 01:11:20;;;;;;;3.25;1.90;;;2.90;99.90;;;;;;5017087;28;20061;-66
2022/04/04 01:13:48;;;;;;;6.30;2.47;;;2.90;99.90;;;;;;5004763;28;20070;-66
2022/04/04 01:16:15;;;;;;;5.20;1.60;;;2.90;99.90;;;;;;5004149;28;20063;-65
2022/04/04 01:18:43;;;;;;;4.75;2.05;;;2.90;99.90;;;;;;5006236;28;20049;-67
2022/04/04 01:21:10;;;;;;;5.47;2.13;;;2.90;99.90;;;;;;5005766;28;20152;-69
2022/04/04 01:23:43;;;;;;;9.48;2.50;;;2.90;99.90;;;;;;4999524;28;20164;-65
2022/04/04 01:26:11;;;;;;;3.70;1.98;;;2.90;99.90;;;;;;5005404;28;20054;-68
2022/04/04 01:28:39;;;;;;;6.13;2.15;;;2.80;99.90;;;;;;5003909;28;20049;-69
2022/04/04 01:31:07;;;;;;;8.10;2.58;;;2.80;99.90;;;;;;5005984;28;20117;-64
2022/04/04 01:33:35;;;;;;;6.80;2.58;;;2.70;99.90;;;;;;5001486;28;20046;-65
2022/04/04 01:36:01;;;;;;;4.85;1.90;;;2.70;99.90;;;;;;5012657;28;20636;-67
2022/04/04 01:38:29;;;;;;;3.88;3.00;;;2.70;99.90;;;;;;5002754;28;20048;-65
2022/04/04 01:40:56;;;;;;;5.47;2.67;;;2.70;99.90;;;;;;5005971;28;20144;-64
2022/04/04 01:43:24;;;;;;;3.13;1.73;;;2.70;99.90;;;;;;5001763;28;20057;-67
2022/04/04 01:48:37;;;;;;;6.03;2.03;;;2.70;99.90;;;;;;5003334;28;20136;-69
2022/04/04 01:51:05;;;;;;;3.45;2.25;;;2.70;99.90;;;;;;5004504;28;20512;-65
2022/04/04 01:53:32;;;;;;;3.95;2.17;;;2.60;99.90;;;;;;5003327;28;20115;-65
2022/04/04 01:56:03;;;;;;;5.70;1.92;;;2.60;99.90;;;;;;5013822;28;20049;-64
2022/04/04 01:58:32;;;;;;;3.90;2.30;;;2.60;99.90;;;;;;5003405;28;20137;-65
2022/04/04 02:01:01;;;;;;;8.00;2.80;;;2.60;99.90;;;;;;5005705;28;20060;-65
2022/04/04 02:03:31;;;;;;;3.83;2.55;;;2.60;99.90;;;;;;4998419;28;20519;-68
2022/04/04 02:06:02;;;;;;;4.43;1.65;;;2.60;99.90;;;;;;4995669;28;20073;-65
2022/04/04 02:08:31;;;;;;;5.25;1.52;;;2.60;99.90;;;;;;5013752;28;20131;-67
2022/04/04 02:10:58;;;;;;;5.68;2.17;;;2.50;99.90;;;;;;5005141;28;20049;-65
2022/04/04 02:13:26;;;;;;;5.25;1.45;;;2.50;99.90;;;;;;5004135;28;20050;-66
2022/04/04 02:15:53;;;;;;;2.55;2.20;;;2.50;99.90;;;;;;5009182;28;20165;-67
2022/04/04 02:18:20;;;;;;;6.72;1.55;;;2.50;99.90;;;;;;5003378;28;20057;-68
2022/04/04 02:20:48;;;;;;;3.72;2.00;;;2.50;99.90;;;;;;5004138;28;20139;-65
2022/04/04 02:23:18;;;;;;;5.03;2.00;;;2.50;99.90;;;;;;5012340;28;20116;-71
2022/04/04 02:25:47;;;;;;;10.73;1.85;;;2.50;99.90;;;;;;5000074;28;20068;-64
2022/04/04 02:28:16;;;;;;;3.45;1.67;;;2.50;99.90;;;;;;4995445;28;20046;-67
2022/04/04 02:30:45;;;;;;;4.25;2.65;;;2.50;99.90;;;;;;5002295;28;20069;-65
2022/04/04 02:33:13;;;;;;;4.50;1.80;;;2.50;99.90;;;;;;4993719;28;20049;-67
2022/04/04 02:35:40;;;;;;;4.53;2.05;;;2.50;99.90;;;;;;4989196;28;20050;-67
2022/04/04 02:38:08;;;;;;;4.13;2.28;;;2.50;99.90;;;;;;5001916;28;20789;-70
2022/04/04 02:40:35;;;;;;;3.42;1.52;;;2.50;99.90;;;;;;5000313;28;20076;-65
2022/04/04 02:43:03;;;;;;;11.57;2.67;;;2.50;99.90;;;;;;5003572;28;20141;-65
2022/04/04 02:45:30;;;;;;;3.92;1.67;;;2.50;99.90;;;;;;5002602;28;20108;-70
2022/04/04 02:47:58;;;;;;;7.00;2.30;;;2.50;99.90;;;;;;5000115;28;20725;-66
2022/04/04 02:50:25;;;;;;;5.10;1.92;;;2.50;99.90;;;;;;5002482;28;20061;-66
2022/04/04 02:52:53;;;;;;;3.33;2.10;;;2.60;99.90;;;;;;4999188;28;20052;-66
2022/04/04 02:58:06;;;;;;;5.38;2.83;;;2.60;99.90;;;;;;5005214;28;20104;-66
2022/04/04 03:00:33;;;;;;;7.35;3.28;;;2.60;99.90;;;;;;4994799;28;20641;-66
2022/04/04 03:03:00;;;;;;;4.53;2.30;;;2.70;99.90;;;;;;5002757;28;20136;-66
2022/04/04 03:05:28;;;;;;;14.30;3.42;;;2.70;99.90;;;;;;5003844;28;20050;-66
2022/04/04 03:07:55;;;;;;;5.75;1.77;;;2.70;99.90;;;;;;5000985;28;20042;-63
2022/04/04 03:10:22;;;;;;;4.03;2.20;;;2.80;99.90;;;;;;5006449;28;20164;-64
2022/04/04 03:12:54;;;;;;;6.45;2.72;;;2.80;99.90;;;;;;4993130;28;20042;-63
2022/04/04 03:15:24;;;;;;;7.32;3.47;;;2.80;99.90;;;;;;5003114;28;20401;-64
2022/04/04 03:17:55;;;;;;;17.03;3.30;;;2.80;99.90;;;;;;5003524;28;20069;-69
2022/04/04 03:20:25;;;;;;;8.55;3.17;;;2.80;99.90;;;;;;5001758;28;20668;-66
2022/04/04 03:22:55;;;;;;;7.60;2.85;;;2.90;99.90;;;;;;5001401;28;20767;-65
2022/04/04 03:25:23;;;;;;;4.70;1.90;;;2.80;99.90;;;;;;5003755;28;20112;-67
2022/04/04 03:27:51;;;;;;;6.00;2.92;;;2.80;99.90;;;;;;5003459;28;20423;-64
2022/04/04 03:30:23;;;;;;;5.60;2.60;;;2.80;99.90;;;;;;5000166;28;20112;-66
2022/04/04 03:32:52;;;;;;;4.55;2.67;;;2.70;99.90;;;;;;4997567;28;20073;-67
2022/04/04 03:35:19;;;;;;;4.88;2.42;;;2.60;99.90;;;;;;5003429;28;20100;-64
2022/04/04 03:37:48;;;;;;;7.90;2.65;;;2.60;99.90;;;;;;4998314;28;20058;-64
2022/04/04 03:40:16;;;;;;;4.32;2.58;;;2.50;99.90;;;;;;4991799;28;20049;-64
2022/04/04 03:42:45;;;;;;;4.78;3.00;;;2.50;99.90;;;;;;5003284;28;20049;-69
2022/04/04 03:45:14;;;;;;;7.43;3.20;;;2.50;99.90;;;;;;5000994;28;20624;-66
2022/04/04 03:47:42;;;;;;;4.78;2.55;;;2.50;99.90;;;;;;4999611;28;20050;-64
2022/04/04 03:50:12;;;;;;;7.00;3.45;;;2.50;99.90;;;;;;5002545;28;20112;-66
2022/04/04 03:52:44;;;;;;;7.32;3.33;;;2.50;99.90;;;;;;5000613;28;20042;-65
2022/04/04 03:55:12;;;;;;;5.65;3.35;;;2.50;99.90;;;;;;4998578;28;20057;-70
2022/04/04 03:57:40;;;;;;;7.82;3.30;;;2.50;99.90;;;;;;4999839;28;20423;-64
2022/04/04 04:00:08;;;;;;;9.80;3.60;;;2.50;99.90;;;;;;5010920;28;20048;-65
2022/04/04 04:02:36;;;;;;;6.70;2.63;;;2.50;99.90;;;;;;4991421;28;20050;-65
2022/04/04 04:05:09;;;;;;;11.20;3.67;;;2.60;99.90;;;;;;5003978;28;20748;-64
2022/04/04 04:07:37;;;;;;;5.57;3.90;;;2.60;99.90;;;;;;5005258;28;20091;-65
2022/04/04 04:10:05;;;;;;;7.57;3.72;;;2.60;99.90;;;;;;4995248;28;20108;-65
2022/04/04 04:12:32;;;;;;;11.93;4.30;;;2.70;99.90;;;;;;5000592;28;20101;-64
2022/04/04 04:14:59;;;;;;;8.18;3.15;;;2.70;99.90;;;;;;5003161;28;20196;-65
2022/04/04 04:17:27;;;;;;;6.70;3.25;;;2.80;99.90;;;;;;5005898;28;20054;-64
2022/04/04 04:22:39;;;;;;;10.02;3.78;;;2.80;99.90;;;;;;5008683;28;20160;-64
2022/04/04 04:25:07;;;;;;;14.10;4.05;;;2.80;99.90;;;;;;5007798;28;20046;-64
2022/04/04 04:27:35;;;;;;;6.22;3.67;;;2.80;99.90;;;;;;4998164;28;20049;-65
2022/04/04 04:30:03;;;;;;;8.55;3.78;;;2.90;99.90;;;;;;5007072;28;20074;-65
2022/04/04 04:32:30;;;;;;;7.35;2.67;;;2.90;99.90;;;;;;5001452;28;20503;-64
2022/04/04 04:34:57;;;;;;;5.72;2.95;;;2.90;99.90;;;;;;5003376;28;20064;-66
2022/04/04 04:37:24;;;;;;;5.68;3.50;;;2.90;99.90;;;;;;5005791;28;20495;-64
2022/04/04 04:39:51;;;;;;;13.80;4.53;;;3.00;99.90;;;;;;5006622;28;20041;-70
2022/04/04 04:42:18;;;;;;;10.85;3.80;;;3.00;99.90;;;;;;4998005;28;20057;-64
2022/04/04 04:44:46;;;;;;;7.43;3.38;;;3.00;99.90;;;;;;5014292;28;20061;-64
2022/04/04 04:47:15;;;;;;;3.80;2.88;;;3.10;99.90;;;;;;4997482;28;20691;-65
2022/04/04 04:49:42;;;;;;;5.05;2.63;;;3.10;99.90;;;;;;5006139;28;20459;-65
2022/04/04 04:52:09;;;;;;;6.35;2.30;;;3.10;99.90;;;;;;5006377;28;20104;-64
2022/04/04 04:54:36;;;;;;;5.97;2.83;;;3.20;99.90;;;;;;5002137;28;20046;-64
2022/04/04 04:57:03;;;;;;;7.15;2.38;;;3.20;99.90;;;;;;5003377;28;20543;-69
2022/04/04 04:59:30;;;;;;;5.45;2.90;;;3.20;99.90;;;;;;5004450;28;20146;-63
2022/04/04 05:01:57;;;;;;;5.78;2.45;;;3.20;99.90;;;;;;5006225;28;20062;-67
2022/04/04 05:04:24;;;;;;;11.70;3.03;;;3.20;99.90;;;;;;5004148;28;20141;-64
2022/04/04 05:06:51;;;;;;;6.90;2.10;;;3.20;99.90;;;;;;5005528;28;20065;-69
2022/04/04 05:09:18;;;;;;;5.47;2.53;;;3.20;99.90;;;;;;5005794;28;20054;-67
2022/04/04 05:11:46;;;;;;;2.83;1.90;;;3.20;99.90;;;;;;5002264;28;20103;-64
2022/04/04 05:14:15;;;;;;;2.90;1.73;;;3.30;99.90;;;;;;4995757;28;20069;-65
2022/04/04 05:16:44;;;;;;;4.57;2.03;;;3.30;99.90;;;;;;4990827;28;20408;-66
2022/04/04 05:19:12;;;;;;;11.32;2.63;;;3.30;99.90;;;;;;4992260;28;20157;-65
2022/04/04 05:21:42;;;;;;;6.10;2.10;;;3.30;99.90;;;;;;4989624;28;20838;-63
2022/04/04 05:24:09;;;;;;;2.85;1.50;;;3.30;99.90;;;;;;4993085;28;20054;-68
2022/04/04 05:26:36;;;;;;;5.93;1.88;;;3.30;99.90;;;;;;4995104;28;20065;-66
2022/04/04 05:29:04;;;;;;;7.00;1.50;;;3.30;99.90;;;;;;4994915;28;20108;-66
2022/04/04 05:31:32;;;;;;;4.03;2.22;;;3.40;99.90;;;;;;4996281;28;20077;-65
2022/04/04 05:34:01;;;;;;;4.50;1.95;;;3.40;99.90;;;;;;4988016;28;20153;-63
2022/04/04 05:36:28;;;;;;;7.28;3.78;;;3.40;99.90;;;;;;4991897;28;20477;-65
2022/04/04 05:38:55;;;;;;;7.03;3.53;;;3.40;99.90;;;;;;4992886;28;20077;-66
2022/04/04 05:41:22;;;;;;;9.50;4.38;;;3.40;99.90;;;;;;4995932;28;20062;-67
2022/04/04 05:43:49;;;;;;;8.95;5.22;;;3.40;99.90;;;;;;4991676;28;20061;-65
2022/04/04 05:46:17;;;;;;;10.50;5.10;;;3.40;99.90;;;;;;4994711;28;20050;-67
2022/04/04 05:48:45;;;;;;;12.88;6.32;;;3.40;99.90;;;;;;4997135;28;20050;-66
2022/04/04 05:51:16;;;;;;;13.50;7.53;;;3.40;99.90;;;;;;4996592;28;20248;-69
2022/04/04 05:53:44;;;;;;;11.75;7.07;;;3.40;99.90;;;;;;4993735;28;20161;-64
2022/04/04 05:56:11;;;;;;;12.93;5.75;;;3.40;99.90;;;;;;4999103;28;20137;-66
2022/04/04 05:58:38;;;;;;;14.55;7.55;;;3.40;99.90;;;;;;4996510;28;20052;-66
2022/04/04 06:01:05;;;;;;;9.80;4.72;;;3.40;99.90;;;;;;4994468;28;20538;-66
2022/04/04 06:03:32;;;;;;;11.43;5.95;;;3.40;99.90;;;;;;4994536;28;20074;-71
2022/04/04 06:05:59;;;;;;;4.35;3.03;;;3.40;99.90;;;;;;4996925;28;20052;-64
2022/04/04 06:08:26;;;;;;;2.97;2.67;;;3.40;99.90;;;;;;4994376;28;20108;-64
2022/04/04 06:10:53;;;;;;;5.10;2.83;;;3.40;99.90;;;;;;4995630;28;20051;-67
2022/04/04 06:13:20;;;;;;;6.65;2.15;;;3.40;99.90;;;;;;4994268;28;20133;-65
2022/04/04 06:15:48;;;;;;;2.90;1.30;;;3.40;99.90;;;;;;4997210;28;20064;-66
2022/04/04 06:18:18;;;;;;;2.53;1.08;;;3.40;99.90;;;;;;4987743;28;20132;-63
2022/04/04 06:20:45;;;;;;;2.95;2.10;;;3.40;99.90;;;;;;4998199;28;20070;-69
2022/04/04 06:23:12;;;;;;;4.47;2.40;;;3.40;99.90;;;;;;4998397;28;20280;-68
2022/04/04 06:25:41;;;;;;;2.40;2.10;;;3.30;99.90;;;;;;4970143;28;20104;-68
2022/04/04 06:28:09;;;;;;;3.40;1.80;;;3.30;99.90;;;;;;4986788;28;20487;-65
2022/04/04 06:30:36;;;;;;;4.25;2.53;;;3.30;99.90;;;;;;4992273;28;20566;-65
2022/04/04 06:33:07;;;;;;;4.50;2.65;;;3.40;99.90;;;;;;4995396;28;20049;-66
2022/04/04 06:35:35;;;;;;;6.38;2.45;;;3.40;99.90;;;;;;5000030;28;20145;-66
2022/04/04 06:38:02;;;;;;;3.15;2.10;;;3.40;99.90;;;;;;4997628;28;20045;-66
2022/04/04 06:40:32;;;;;;;9.40;2.83;;;3.50;99.90;;;;;;4993938;28;20149;-64
2022/04/04 06:42:59;;;;;;;5.05;2.92;;;3.50;99.90;;;;;;4991349;28;20099;-68
2022/04/04 06:45:26;;;;;;;5.45;1.40;;;3.60;99.90;;;;;;4994377;28;20141;-64
2022/04/04 06:47:53;;;;;;;4.03;2.03;;;3.70;99.90;;;;;;4995511;28;20046;-72
2022/04/04 06:50:20;;;;;;;3.22;1.77;;;3.70;99.90;;;;;;4996505;28;20152;-69
2022/04/04 06:52:48;;;;;;;2.00;1.10;;;3.70;99.90;;;;;;4990174;28;20061;-73
2022/04/04 06:55:35;;;;;;;1.88;1.25;;;3.80;99.90;;;;;;4990347;28;20037;-70
2022/04/04 06:58:02;;;;;;;4.55;1.48;;;3.90;99.90;;;;;;4998730;28;20100;-66
2022/04/04 07:00:29;;;;;;;1.33;1.13;;;3.90;99.90;;;;;;4999245;28;20080;-64
2022/04/04 07:02:58;;;;;;;2.72;1.10;;;3.90;99.90;;;;;;4997924;28;20427;-69
2022/04/04 07:05:25;;;;;;;1.42;1.10;;;3.90;99.90;;;;;;4996769;28;20050;-65
2022/04/04 07:07:52;;;;;;;3.58;2.05;;;4.00;99.90;;;;;;4998976;28;20156;-67
2022/04/04 07:10:21;;;;;;;2.17;1.23;;;4.00;99.90;;;;;;4994446;28;20065;-69
2022/04/04 07:12:48;;;;;;;1.55;0.88;;;4.00;99.90;;;;;;4988982;28;20054;-67
2022/04/04 07:15:15;;;;;;;3.00;1.05;;;4.00;99.90;;;;;;4999135;28;20192;-68
2022/04/04 07:17:43;;;;;;;5.30;1.00;;;4.10;99.90;;;;;;4997312;28;20056;-68
2022/04/04 07:20:11;;;;;;;3.92;1.10;;;4.00;99.90;;;;;;4987405;28;20070;-64
2022/04/04 07:22:40;;;;;;;2.90;0.57;;;4.00;99.90;;;;;;4987786;28;20392;-66
2022/04/04 07:25:08;;;;;;;3.22;0.93;;;4.10;99.90;;;;;;4991394;28;20052;-65
2022/04/04 07:27:36;;;;;;;5.15;1.52;;;4.10;99.90;;;;;;5008087;28;20141;-64
2022/04/04 07:30:03;;;;;;;1.52;0.70;;;4.10;99.90;;;;;;4991046;28;20551;-66
2022/04/04 07:32:30;;;;;;;7.45;2.67;;;4.10;99.90;;;;;;4987627;28;20449;-65
2022/04/04 07:34:57;;;;;;;1.65;1.50;;;4.10;99.90;;;;;;4994423;28;20042;-66
2022/04/04 07:37:24;;;;;;;1.17;1.10;;;4.10;99.90;;;;;;5001427;28;20049;-64
2022/04/04 07:39:51;;;;;;;3.00;1.38;;;4.10;99.90;;;;;;4992662;28;20058;-66
2022/04/04 07:42:18;;;;;;;5.22;1.35;;;4.10;99.90;;;;;;4996777;28;20061;-65
2022/04/04 07:44:45;;;;;;;1.73;1.33;;;4.10;99.90;;;;;;4997411;28;20095;-64
2022/04/04 07:47:12;;;;;;;3.40;1.15;;;4.10;99.90;;;;;;4992338;28;20814;-71
2022/04/04 07:49:39;;;;;;;15.60;4.90;;;4.10;99.90;;;;;;4994257;28;20765;-65
2022/04/04 07:52:06;;;;;;;3.35;2.28;;;4.10;99.90;;;;;;4994051;28;20131;-64
2022/04/04 07:54:33;;;;;;;5.07;1.45;;;4.10;99.90;;;;;;5003069;28;20077;-68
2022/04/04 07:57:00;;;;;;;2.08;1.50;;;4.20;99.90;;;;;;4998877;28;20122;-68
2022/04/04 07:59:27;;;;;;;4.72;1.70;;;4.20;99.90;;;;;;4993336;28;20389;-68
2022/04/04 08:01:54;;;;;;;2.13;1.48;;;4.20;99.90;;;;;;4998874;28;20130;-66
2022/04/04 08:04:21;;;;;;;1.85;0.70;;;4.30;99.90;;;;;;5000807;28;20080;-68
2022/04/04 08:06:49;;;;;;;0.70;0.55;;;4.30;99.90;;;;;;5004525;28;20207;-66
2022/04/04 08:09:16;;;;;;;2.38;0.60;;;4.30;99.90;;;;;;5004092;28;20074;-67
2022/04/04 08:11:43;;;;;;;1.30;0.90;;;4.30;99.90;;;;;;5005634;28;20046;-66
2022/04/04 08:14:10;;;;;;;4.18;0.80;;;4.30;99.90;;;;;;4998304;28;20575;-64
2022/04/04 08:16:39;;;;;;;2.08;1.70;;;4.30;99.90;;;;;;4995630;28;20057;-65
2022/04/04 08:19:06;;;;;;;1.65;1.00;;;4.40;99.90;;;;;;4999257;28;20429;-66
2022/04/04 08:21:34;;;;;;;4.57;0.80;;;4.40;99.90;;;;;;4993989;28;20141;-70
2022/04/04 08:24:01;;;;;;;1.30;0.80;;;4.40;99.90;;;;;;4995120;28;20103;-66
2022/04/04 08:26:28;;;;;;;2.47;1.05;;;4.50;99.90;;;;;;4999810;28;20137;-67
2022/04/04 08:28:55;;;;;;;1.73;1.23;;;4.60;99.90;;;;;;4996780;28;20129;-65
2022/04/04 08:31:22;;;;;;;0.80;0.80;;;4.60;99.90;;;;;;5000627;28;20061;-67
2022/04/04 08:33:50;;;;;;;4.45;1.45;;;4.60;99.90;;;;;;5002789;28;20046;-65
2022/04/04 08:36:16;;;;;;;5.85;1.10;;;4.60;99.90;;;;;;4998990;28;20107;-66
2022/04/04 08:38:43;;;;;;;1.65;0.98;;;4.70;99.90;;;;;;5003119;28;20067;-65
2022/04/04 08:41:11;;;;;;;1.85;0.55;;;4.70;99.90;;;;;;5004995;28;20133;-63
2022/04/04 08:43:43;;;;;;;3.03;2.72;;;4.80;99.90;;;;;;4996816;28;20074;-66
2022/04/04 08:46:11;;;;;;;1.05;0.95;;;4.70;99.90;;;;;;4997956;28;20084;-67
2022/04/04 08:48:40;;;;;;;3.17;1.67;;;4.80;99.90;;;;;;4996304;28;20054;-66
2022/04/04 08:51:08;;;;;;;2.67;1.08;;;4.80;99.90;;;;;;5003449;28;20045;-65
2022/04/04 08:53:36;;;;;;;1.42;1.10;;;4.80;99.90;;;;;;4999790;28;20037;-65
2022/04/04 08:56:05;;;;;;;1.45;0.98;;;4.90;99.90;;;;;;4999349;28;20074;-65
2022/04/04 08:58:33;;;;;;;2.42;0.70;;;4.90;99.90;;;;;;4997967;28;20073;-68
2022/04/04 09:01:00;;;;;;;4.75;4.30;;;4.90;99.90;;;;;;5013620;28;20085;-64
2022/04/04 09:03:31;;;;;;;5.47;2.70;;;4.90;99.90;;;;;;5000126;28;20057;-68
2022/04/04 09:06:01;;;;;;;2.05;1.70;;;5.00;99.90;;;;;;4992377;28;20436;-66
2022/04/04 09:08:29;;;;;;;2.65;2.40;;;5.00;99.90;;;;;;4996371;28;20046;-67
2022/04/04 09:11:00;;;;;;;2.85;1.85;;;5.00;99.90;;;;;;4996292;28;20186;-64
2022/04/04 09:13:29;;;;;;;2.00;1.77;;;5.10;99.90;;;;;;4998061;28;20650;-64
2022/04/04 09:15:56;;;;;;;3.55;2.47;;;5.00;99.90;;;;;;5004055;28;20064;-68
2022/04/04 09:18:39;;;;;;;2.47;1.30;;;5.00;99.90;;;;;;4998409;28;20108;-71
2022/04/04 09:21:18;;;;;;;2.75;1.63;;;5.10;99.90;;;;;;4991514;28;20117;-64
2022/04/04 09:23:45;;;;;;;3.17;1.35;;;5.10;99.90;;;;;;4998866;28;20184;-67
2022/04/04 09:26:33;;;;;;;1.85;1.30;;;5.10;99.90;;;;;;4998428;28;20105;-63
2022/04/04 09:29:05;;;;;;;1.52;1.27;;;5.10;99.90;;;;;;4995364;28;20072;-65
2022/04/04 09:31:33;;;;;;;2.30;1.23;;;5.10;99.90;;;;;;4994752;28;20054;-63
2022/04/04 09:34:05;;;;;;;1.92;1.10;;;5.10;99.90;;;;;;4997597;28;20042;-63
2022/04/04 09:36:32;;;;;;;1.20;0.90;;;5.00;99.90;;;;;;4999030;28;20141;-68
2022/04/04 09:39:05;;;;;;;2.40;1.50;;;5.00;99.90;;;;;;4998047;28;20202;-66
2022/04/04 09:41:39;;;;;;;5.13;1.80;;;5.00;99.90;;;;;;4998358;28;20602;-67
2022/04/04 09:44:11;;;;;;;3.53;1.50;;;5.00;99.90;;;;;;4993467;28;20125;-63
2022/04/04 09:46:41;;;;;;;6.13;1.80;;;5.00;99.90;;;;;;4993802;28;20120;-66
2022/04/04 09:49:10;;;;;;;3.70;2.78;;;5.00;99.90;;;;;;4999911;28;20204;-74
2022/04/04 09:51:41;;;;;;;4.00;2.92;;;5.00;99.90;;;;;;4999962;28;20053;-65
2022/04/04 09:54:15;;;;;;;5.32;3.47;;;5.00;99.90;;;;;;4999915;28;20039;-68
2022/04/04 09:56:42;;;;;;;3.08;2.65;;;5.00;99.90;;;;;;5006999;28;20121;-67
2022/04/04 09:59:15;;;;;;;4.47;2.80;;;5.00;99.90;;;;;;5005427;28;20192;-66
2022/04/04 10:01:43;;;;;;;4.05;2.20;;;5.00;99.90;;;;;;5005929;28;20116;-69
2022/04/04 10:04:14;;;;;;;6.20;4.68;;;5.00;99.90;;;;;;5002873;28;20085;-67
2022/04/04 10:06:42;;;;;;;;;;;4.90;99.90;;;;;;5004801;28;20360;-67
2022/04/04 10:09:09;;;;;;;2.72;2.22;;;4.90;99.90;;;;;;5000332;28;19965;-63
2022/04/04 10:11:38;;;;;;;6.53;3.13;;;4.90;99.90;;;;;;5004912;28;20072;-68
2022/04/04 10:14:06;;;;;;;5.95;2.30;;;5.00;99.90;;;;;;5003906;28;20491;-65
2022/04/04 10:16:33;;;;;;;3.75;2.08;;;4.80;99.90;;;;;;4997755;28;20049;-63
2022/04/04 10:19:01;;;;;;;8.75;2.95;;;4.90;99.90;;;;;;5000885;28;20066;-66
2022/04/04 10:21:28;;;;;;;3.67;3.25;;;4.90;99.90;;;;;;5004620;28;20376;-70
2022/04/04 10:23:59;;;;;;;8.32;3.30;;;4.90;99.90;;;;;;5005402;28;20046;-63
2022/04/04 10:26:33;;;;;;;3.88;2.00;;;4.80;99.90;;;;;;4996652;28;20038;-68
2022/04/04 10:29:14;;;;;;;6.13;2.88;;;4.80;99.90;;;;;;4990912;28;20158;-68
2022/04/04 10:31:48;;;;;;;4.50;3.08;;;4.80;99.90;;;;;;4992266;28;20574;-66
2022/04/04 10:34:21;;;;;;;5.82;3.38;;;4.80;99.90;;;;;;4995024;28;20617;-68
2022/04/04 10:37:19;;;;;;;6.35;4.20;;;4.70;99.90;;;;;;5001845;28;20077;-70
2022/04/04 10:39:48;;;;;;;5.35;3.70;;;4.70;99.90;;;;;;5002487;28;20527;-65
2022/04/04 10:42:28;;;;;;;11.73;3.45;;;4.60;99.90;;;;;;5003572;28;20041;-65
2022/04/04 10:45:11;;;;;;;4.70;3.10;;;4.60;99.90;;;;;;5003116;28;20072;-65
2022/04/04 10:47:47;;;;;;;8.07;5.00;;;4.50;99.90;;;;;;5001604;28;20062;-63
2022/04/04 10:50:25;;;;;;;9.32;4.78;;;4.50;99.90;;;;;;4995391;28;20149;-69
2022/04/04 10:52:53;;;;;;;8.75;7.43;;;4.60;99.90;;;;;;5002934;28;20065;-63
2022/04/04 10:55:29;;;;;;;7.65;6.30;;;4.50;99.90;;;;;;5006172;28;20056;-67
2022/04/04 10:58:10;;;;;;;8.00;6.35;;;4.50;99.90;;;;;;5019550;28;20049;-65
2022/04/04 11:01:24;;;;;;;13.73;8.73;;;4.50;99.90;;;;;;5005222;28;20437;-65
2022/04/04 11:03:51;;;;;;;11.35;6.15;;;4.50;99.90;;;;;;4999075;28;20373;-63
2022/04/04 11:09:26;;;;;;;15.27;5.93;;;4.40;99.90;;;;;;5006158;28;20144;-70
2022/04/04 11:12:00;;;;;;;7.53;5.10;;;4.40;99.90;;;;;;4993060;28;20689;-69
2022/04/04 11:14:27;;;;;;;10.63;5.93;;;4.40;99.90;;;;;;4997227;28;20046;-63
2022/04/04 11:17:08;;;;;;;10.18;4.80;;;4.40;99.90;;;;;;5013537;28;20057;-73
2022/04/04 11:19:47;;;;;;;7.13;4.43;;;4.50;99.90;;;;;;5005721;28;20056;-62
2022/04/04 11:22:16;;;;;;;8.10;4.65;;;4.40;99.90;;;;;;5000627;28;20109;-66
2022/04/04 11:24:51;;;;;;;5.65;3.50;;;4.40;99.90;;;;;;5006363;28;20607;-72
2022/04/04 11:27:20;;;;;;;10.77;4.53;;;4.30;99.90;;;;;;4994789;28;20119;-68
2022/04/04 11:29:47;;;;;;;6.28;3.80;;;4.40;99.90;;;;;;5009385;28;20052;-66
2022/04/04 11:32:16;;;;;;;10.10;5.05;;;4.30;99.90;;;;;;5002296;28;20152;-65
2022/04/04 11:34:44;;;;;;;6.53;5.22;;;4.30;99.90;;;;;;4992748;28;20038;-67
2022/04/04 11:37:17;;;;;;;12.63;7.00;;;4.30;99.90;;;;;;4991451;28;20058;-64
2022/04/04 11:39:46;;;;;;;28.33;11.93;;;4.30;99.90;;;;;;4997248;28;20064;-63
2022/04/04 11:42:14;;;;;;;15.43;8.52;;;4.30;99.90;;;;;;5002448;28;20073;-62
2022/04/04 11:44:46;;;;;;;17.10;11.60;;;4.30;99.90;;;;;;5011217;28;20077;-71
2022/04/04 11:47:13;;;;;;;17.52;13.13;;;4.20;99.90;;;;;;4997818;28;20103;-63
2022/04/04 11:49:44;;;;;;;18.63;11.23;;;4.20;99.90;;;;;;4998266;28;20137;-64
2022/04/04 11:52:18;;;;;;;14.18;9.98;;;4.20;99.90;;;;;;4988590;28;20054;-65
2022/04/04 11:54:50;;;;;;;22.30;15.48;;;4.20;99.90;;;;;;4994608;28;20116;-62
2022/04/04 11:57:18;;;;;;;29.08;14.73;;;4.20;99.90;;;;;;4990573;28;20109;-67
2022/04/04 11:59:47;;;;;;;19.23;13.65;;;4.10;99.90;;;;;;5000254;28;20101;-68
2022/04/04 12:02:14;;;;;;;15.95;11.20;;;4.10;99.90;;;;;;4991797;28;20177;-65
2022/04/04 12:04:43;;;;;;;17.50;10.43;;;4.10;99.90;;;;;;4992716;28;20148;-66
2022/04/04 12:07:11;;;;;;;13.80;9.65;;;4.10;99.90;;;;;;4997831;28;20113;-62
2022/04/04 12:09:39;;;;;;;12.65;10.40;;;4.00;99.90;;;;;;4983855;28;20477;-66
2022/04/04 12:12:12;;;;;;;12.93;9.07;;;4.00;99.90;;;;;;4993084;28;20460;-68
2022/04/04 12:14:41;;;;;;;16.42;9.55;;;4.10;99.90;;;;;;4993305;28;20046;-66
2022/04/04 12:17:13;;;;;;;15.27;8.80;;;4.00;99.90;;;;;;4995693;28;20495;-68
2022/04/04 12:19:46;;;;;;;13.75;8.75;;;4.00;99.90;;;;;;4989854;28;20054;-63
2022/04/04 12:25:04;;;;;;;12.60;9.23;;;4.00;99.90;;;;;;4991035;28;20154;-65
2022/04/04 12:27:31;;;;;;;14.27;9.45;;;3.90;99.90;;;;;;4997032;28;20058;-62
2022/04/04 12:30:04;;;;;;;14.32;10.18;;;3.90;99.90;;;;;;5002304;28;20410;-63
2022/04/04 12:32:38;;;;;;;12.20;9.27;;;3.90;99.90;;;;;;4995084;28;20141;-63
2022/04/04 12:35:06;;;;;;;9.85;8.70;;;3.90;99.90;;;;;;4992718;28;20151;-64
2022/04/04 12:37:43;;;;;;;11.00;8.25;;;3.80;99.90;;;;;;4986002;28;20145;-64
2022/04/04 12:40:17;;;;;;;11.43;8.27;;;3.80;99.90;;;;;;4995882;28;20137;-65
2022/04/04 12:42:47;;;;;;;14.10;8.63;;;3.70;99.90;;;;;;4998508;28;20156;-63
2022/04/04 12:45:16;;;;;;;11.15;9.68;;;3.70;99.90;;;;;;4993925;28;20809;-64
2022/04/04 12:47:57;;;;;;;9.40;8.48;;;3.60;99.90;;;;;;5001879;28;20077;-65
2022/04/04 12:50:36;;;;;;;11.10;8.77;;;3.60;99.90;;;;;;4996109;28;20443;-64
2022/04/04 12:53:07;;;;;;;14.85;9.38;;;3.60;99.90;;;;;;4989639;28;20058;-69
2022/04/04 12:55:35;;;;;;;12.20;9.27;;;3.60;99.90;;;;;;5005233;28;20053;-65
2022/04/04 12:58:23;;;;;;;11.63;8.88;;;3.60;99.90;;;;;;4996813;28;20061;-64
2022/04/04 13:00:51;;;;;;;12.70;9.07;;;3.50;99.90;;;;;;4993169;28;20057;-64
2022/04/04 13:03:26;;;;;;;13.50;10.80;;;3.50;99.90;;;;;;4994263;28;20543;-63
2022/04/04 13:05:58;;;;;;;15.07;10.63;;;3.50;99.90;;;;;;4993374;28;20049;-65
2022/04/04 13:08:27;;;;;;;11.73;9.52;;;3.50;99.90;;;;;;4986070;28;20133;-61
2022/04/04 13:11:09;;;;;;;12.50;9.23;;;3.40;99.90;;;;;;4992949;28;20073;-65
2022/04/04 13:13:56;;;;;;;10.82;9.65;;;3.40;99.90;;;;;;4990298;28;20468;-62
2022/04/04 13:17:02;;;;;;;15.35;9.70;;;3.30;99.90;;;;;;4997194;28;20617;-63
2022/04/04 13:19:29;;;;;;;10.65;8.93;;;3.30;99.90;;;;;;4995574;28;20438;-62
2022/04/04 13:21:56;;;;;;;12.68;9.45;;;3.30;99.90;;;;;;4996046;28;20137;-64